createdAt,value
2017-06-05T00:01:40.295Z,91.79
2017-06-05T00:04:13.616Z,92.02
2017-06-05T00:06:46.052Z,92.08
2017-06-05T00:09:18.702Z,92.61
2017-06-05T00:11:50.792Z,93.96
2017-06-05T00:14:23.641Z,92.80
2017-06-05T00:16:55.696Z,93.09
2017-06-05T00:19:28.138Z,93.86
2017-06-05T00:22:01.137Z,92.34
2017-06-05T00:24:32.937Z,92.32
2017-06-05T00:27:05.197Z,92.81
2017-06-05T00:29:37.561Z,92.54
2017-06-05T00:32:10.020Z,92.69
2017-06-05T00:34:42.335Z,92.17
2017-06-05T00:37:14.647Z,91.90
2017-06-05T00:39:46.899Z,91.13
2017-06-05T00:42:19.471Z,90.99
2017-06-05T00:44:51.855Z,90.36
2017-06-05T00:47:24.325Z,90.87
2017-06-05T00:49:56.981Z,90.35
2017-06-05T00:52:29.125Z,89.88
2017-06-05T00:55:01.737Z,89.44
2017-06-05T00:57:34.133Z,90.13
2017-06-05T01:00:06.506Z,90.50
2017-06-05T01:02:38.917Z,90.05
2017-06-05T01:05:11.387Z,91.44
2017-06-05T01:07:43.833Z,91.17
2017-06-05T01:10:16.334Z,92.64
2017-06-05T01:12:48.601Z,93.02
2017-06-05T01:15:21.276Z,92.23
2017-06-05T01:17:53.437Z,93.01
2017-06-05T01:20:25.784Z,92.65
2017-06-05T01:22:58.171Z,93.34
2017-06-05T01:25:30.713Z,92.32
2017-06-05T01:28:03.133Z,91.61
2017-06-05T01:30:35.520Z,91.97
2017-06-05T01:33:08.304Z,92.45
2017-06-05T01:35:40.449Z,92.72
2017-06-05T01:38:13.914Z,92.56
2017-06-05T01:40:46.244Z,91.91
2017-06-05T01:43:18.978Z,91.87
2017-06-05T01:45:51.004Z,91.99
2017-06-05T01:48:23.388Z,91.30
2017-06-05T01:50:55.717Z,91.09
2017-06-05T01:53:28.034Z,90.94
2017-06-05T01:56:00.768Z,90.38
2017-06-05T01:58:32.926Z,91.41
2017-06-05T02:01:05.378Z,92.00
2017-06-05T02:03:37.880Z,92.38
2017-06-05T02:06:10.180Z,92.63
2017-06-05T02:08:42.537Z,91.92
2017-06-05T02:11:15.288Z,91.75
2017-06-05T02:13:47.672Z,91.24
2017-06-05T02:16:19.751Z,91.24
2017-06-05T02:18:52.045Z,91.00
2017-06-05T02:21:25.533Z,91.25
2017-06-05T02:23:57.946Z,89.87
2017-06-05T02:26:30.568Z,90.56
2017-06-05T02:29:02.568Z,91.03
2017-06-05T02:31:34.956Z,90.69
2017-06-05T02:34:07.265Z,91.26
2017-06-05T02:36:40.689Z,91.99
2017-06-05T02:39:13.441Z,93.40
2017-06-05T02:41:45.782Z,92.96
2017-06-05T02:44:18.193Z,93.59
2017-06-05T02:46:50.236Z,93.53
2017-06-05T02:49:22.674Z,94.13
2017-06-05T02:51:55.166Z,95.19
2017-06-05T02:54:27.580Z,95.54
2017-06-05T02:57:00.033Z,95.38
2017-06-05T02:59:33.248Z,95.35
2017-06-05T03:02:05.968Z,93.90
2017-06-05T03:04:38.536Z,93.17
2017-06-05T03:07:11.019Z,91.78
2017-06-05T03:09:43.421Z,90.90
2017-06-05T03:12:15.892Z,91.16
2017-06-05T03:14:48.339Z,91.43
2017-06-05T03:17:20.831Z,91.21
2017-06-05T03:19:53.284Z,90.61
2017-06-05T03:22:25.803Z,91.02
2017-06-05T03:24:58.061Z,90.86
2017-06-05T03:27:30.781Z,90.63
2017-06-05T03:30:03.095Z,89.36
2017-06-05T03:32:35.408Z,88.60
2017-06-05T03:35:07.754Z,88.25
2017-06-05T03:37:40.126Z,87.65
2017-06-05T03:40:12.776Z,87.82
2017-06-05T03:42:44.792Z,87.97
2017-06-05T03:45:17.275Z,88.05
2017-06-05T03:47:49.541Z,87.00
2017-06-05T03:50:22.264Z,86.97
2017-06-05T03:52:54.337Z,87.05
2017-06-05T03:55:27.119Z,86.56
2017-06-05T03:57:59.245Z,87.52
2017-06-05T04:00:31.665Z,86.10
2017-06-05T04:03:04.104Z,85.51
2017-06-05T04:05:36.488Z,83.73
2017-06-05T04:08:09.245Z,81.49
2017-06-05T04:10:41.398Z,81.11
2017-06-05T04:13:14.129Z,81.29
2017-06-05T04:15:46.596Z,82.45
2017-06-05T04:18:18.725Z,82.96
2017-06-05T04:20:51.075Z,80.54
2017-06-05T04:23:23.672Z,78.86
2017-06-05T04:25:56.022Z,75.82
2017-06-05T04:28:28.548Z,71.35
2017-06-05T04:31:00.933Z,68.04
2017-06-05T04:33:33.269Z,67.15
2017-06-05T04:36:05.613Z,64.66
2017-06-05T04:38:38.053Z,62.19
2017-06-05T04:41:10.434Z,60.66
2017-06-05T04:43:43.745Z,59.72
2017-06-05T04:46:16.236Z,58.65
2017-06-05T04:48:48.689Z,56.82
2017-06-05T04:51:21.033Z,54.40
2017-06-05T04:53:53.393Z,49.23
2017-06-05T04:56:25.827Z,47.25
2017-06-05T04:58:58.210Z,44.18
2017-06-05T05:01:30.593Z,43.46
2017-06-05T05:04:03.029Z,50.56
2017-06-05T05:06:35.420Z,49.27
2017-06-05T05:09:07.921Z,48.23
2017-06-05T05:11:40.275Z,45.18
2017-06-05T05:14:12.669Z,45.90
2017-06-05T05:16:45.071Z,46.84
2017-06-05T05:19:24.348Z,44.97
2017-06-05T05:21:56.889Z,40.92
2017-06-05T05:24:29.344Z,39.38
2017-06-05T05:27:01.797Z,39.34
2017-06-05T05:29:34.169Z,45.07
2017-06-05T05:32:07.848Z,46.50
2017-06-05T05:34:40.010Z,45.30
2017-06-05T05:37:12.304Z,46.94
2017-06-05T05:39:44.584Z,45.57
2017-06-05T05:42:16.933Z,44.01
2017-06-05T05:44:49.608Z,44.48
2017-06-05T05:47:21.981Z,40.20
2017-06-05T05:49:54.222Z,40.33
2017-06-05T05:52:26.537Z,40.73
2017-06-05T05:54:59.178Z,42.38
2017-06-05T05:57:31.474Z,40.55
2017-06-05T06:00:03.832Z,40.76
2017-06-05T06:02:36.245Z,41.79
2017-06-05T06:05:09.779Z,40.55
2017-06-05T06:07:42.201Z,42.50
2017-06-05T06:10:14.674Z,43.72
2017-06-05T06:12:47.105Z,43.70
2017-06-05T06:15:19.491Z,45.84
2017-06-05T06:17:51.872Z,44.37
2017-06-05T06:20:24.431Z,46.29
2017-06-05T06:22:57.157Z,50.61
2017-06-05T06:25:29.458Z,47.01
2017-06-05T06:28:01.774Z,46.44
2017-06-05T06:30:34.315Z,46.03
2017-06-05T06:33:06.713Z,44.63
2017-06-05T06:35:39.249Z,44.72
2017-06-05T06:38:11.710Z,47.28
2017-06-05T06:40:44.300Z,48.63
2017-06-05T06:43:16.672Z,47.51
2017-06-05T06:45:49.282Z,48.93
2017-06-05T06:48:21.597Z,50.52
2017-06-05T06:50:54.033Z,46.70
2017-06-05T06:53:26.406Z,47.88
2017-06-05T06:55:58.824Z,48.23
2017-06-05T06:58:31.317Z,48.52
2017-06-05T07:01:03.744Z,48.89
2017-06-05T07:03:36.144Z,47.43
2017-06-05T07:06:08.943Z,46.88
2017-06-05T07:08:41.132Z,44.42
2017-06-05T07:11:13.289Z,42.74
2017-06-05T07:13:45.660Z,40.45
2017-06-05T07:16:18.088Z,40.47
2017-06-05T07:18:50.393Z,39.50
2017-06-05T07:21:22.793Z,42.28
2017-06-05T07:23:55.301Z,37.08
2017-06-05T07:26:28.024Z,39.22
2017-06-05T07:29:00.039Z,35.39
2017-06-05T07:31:32.800Z,38.63
2017-06-05T07:34:04.958Z,33.63
2017-06-05T07:36:37.417Z,33.40
2017-06-05T07:39:09.751Z,39.16
2017-06-05T07:41:42.241Z,36.43
2017-06-05T07:44:14.699Z,35.56
2017-06-05T07:46:47.004Z,35.35
2017-06-05T07:49:19.212Z,36.70
2017-06-05T07:51:51.982Z,35.12
2017-06-05T07:54:24.061Z,36.62
2017-06-05T07:56:56.540Z,33.95
2017-06-05T07:59:28.905Z,33.89
2017-06-05T08:02:01.408Z,32.38
2017-06-05T08:04:33.845Z,29.23
2017-06-05T08:07:06.633Z,30.71
2017-06-05T08:09:38.732Z,35.22
2017-06-05T08:12:11.457Z,32.51
2017-06-05T08:14:43.436Z,33.85
2017-06-05T08:17:15.840Z,34.39
2017-06-05T08:19:48.393Z,33.18
2017-06-05T08:22:21.274Z,32.78
2017-06-05T08:24:53.281Z,31.38
2017-06-05T08:27:25.645Z,30.82
2017-06-05T08:29:58.118Z,30.79
2017-06-05T08:32:30.680Z,32.29
2017-06-05T08:35:03.439Z,32.26
2017-06-05T08:37:35.557Z,33.87
2017-06-05T08:40:08.381Z,36.22
2017-06-05T08:42:40.368Z,33.39
2017-06-05T08:45:12.890Z,30.55
2017-06-05T08:47:45.257Z,30.73
2017-06-05T08:50:17.626Z,30.87
2017-06-05T08:52:49.980Z,30.00
2017-06-05T08:55:22.456Z,29.88
2017-06-05T08:57:55.089Z,28.43
2017-06-05T09:00:27.580Z,32.62
2017-06-05T09:03:00.192Z,31.63
2017-06-05T09:05:32.729Z,30.79
2017-06-05T09:08:05.333Z,30.85
2017-06-05T09:10:38.453Z,28.42
2017-06-05T09:13:11.345Z,27.02
2017-06-05T09:15:43.789Z,28.81
2017-06-05T09:18:16.203Z,24.42
2017-06-05T09:20:48.567Z,27.65
2017-06-05T09:23:21.064Z,26.37
2017-06-05T09:25:53.200Z,24.66
2017-06-05T09:28:25.021Z,25.01
2017-06-05T09:30:57.621Z,25.30
2017-06-05T09:33:30.795Z,26.46
2017-06-05T09:36:02.820Z,26.62
2017-06-05T09:38:35.337Z,25.13
2017-06-05T09:41:07.848Z,24.59
2017-06-05T09:43:40.349Z,23.71
2017-06-05T09:46:13.476Z,28.82
2017-06-05T09:48:46.043Z,29.50
2017-06-05T09:51:18.369Z,27.72
2017-06-05T09:53:50.931Z,28.57
2017-06-05T09:56:23.416Z,27.85
2017-06-05T09:58:56.037Z,30.22
2017-06-05T10:01:28.644Z,27.83
2017-06-05T10:04:00.862Z,25.44
2017-06-05T10:06:33.298Z,29.83
2017-06-05T10:09:05.693Z,31.16
2017-06-05T10:11:38.077Z,28.93
2017-06-05T10:14:10.463Z,30.74
2017-06-05T10:16:42.957Z,29.27
2017-06-05T10:19:15.455Z,32.87
2017-06-05T10:21:47.757Z,31.17
2017-06-05T10:24:20.371Z,34.15
2017-06-05T10:26:52.862Z,33.63
2017-06-05T10:29:25.313Z,32.61
2017-06-05T10:31:57.777Z,31.66
2017-06-05T10:34:30.296Z,29.87
2017-06-05T10:37:09.713Z,30.07
2017-06-05T10:39:42.234Z,29.03
2017-06-05T10:42:14.681Z,26.26
2017-06-05T10:44:47.151Z,26.52
2017-06-05T10:47:19.605Z,28.35
2017-06-05T10:49:51.980Z,33.61
2017-06-05T10:52:24.334Z,32.27
2017-06-05T10:54:56.844Z,32.27
2017-06-05T10:57:29.461Z,32.18
2017-06-05T11:00:01.661Z,30.34
2017-06-05T11:02:34.028Z,30.13
2017-06-05T11:05:06.308Z,29.72
2017-06-05T11:07:38.816Z,30.89
2017-06-05T11:10:11.225Z,30.23
2017-06-05T11:12:43.805Z,31.77
2017-06-05T11:15:16.188Z,31.15
2017-06-05T11:17:48.580Z,31.47
2017-06-05T11:20:20.944Z,30.90
2017-06-05T11:22:53.351Z,30.41
2017-06-05T11:25:25.687Z,30.51
2017-06-05T11:27:58.148Z,31.54
2017-06-05T11:30:30.476Z,30.54
2017-06-05T11:33:03.034Z,31.62
2017-06-05T11:35:35.404Z,33.04
2017-06-05T11:38:08.163Z,34.52
2017-06-05T11:40:40.526Z,30.59
2017-06-05T11:43:13.040Z,30.72
2017-06-05T11:45:45.350Z,31.65
2017-06-05T11:48:17.909Z,30.74
2017-06-05T11:50:50.341Z,30.99
2017-06-05T11:53:22.869Z,30.16
2017-06-05T11:56:05.393Z,30.03
2017-06-05T11:58:37.933Z,29.79
2017-06-05T12:01:10.301Z,26.41
2017-06-05T12:03:42.720Z,30.58
2017-06-05T12:06:15.141Z,29.77
2017-06-05T12:08:47.773Z,28.19
2017-06-05T12:11:20.304Z,27.69
2017-06-05T12:13:52.728Z,27.23
2017-06-05T12:16:25.055Z,27.66
2017-06-05T12:18:57.576Z,26.41
2017-06-05T12:21:30.024Z,27.41
2017-06-05T12:24:02.482Z,27.27
2017-06-05T12:26:35.048Z,25.88
2017-06-05T12:29:07.808Z,25.60
2017-06-05T12:31:39.920Z,27.64
2017-06-05T12:34:12.404Z,30.05
2017-06-05T12:36:44.743Z,30.21
2017-06-05T12:39:17.264Z,29.97
2017-06-05T12:41:50.372Z,29.54
2017-06-05T12:44:23.093Z,29.58
2017-06-05T12:46:55.441Z,30.10
2017-06-05T12:49:27.977Z,30.41
2017-06-05T12:52:01.465Z,31.35
2017-06-05T12:54:33.784Z,28.68
2017-06-05T12:57:09.324Z,27.05
2017-06-05T12:59:41.921Z,27.83
2017-06-05T13:02:14.303Z,28.54
2017-06-05T13:04:46.643Z,28.66
2017-06-05T13:07:19.237Z,30.00
2017-06-05T13:09:51.560Z,30.12
2017-06-05T13:12:23.936Z,27.55
2017-06-05T13:14:56.656Z,28.73
2017-06-05T13:17:29.092Z,29.32
2017-06-05T13:20:01.586Z,28.98
2017-06-05T13:22:34.053Z,30.55
2017-06-05T13:25:06.416Z,28.25
2017-06-05T13:27:38.785Z,28.43
2017-06-05T13:30:11.177Z,30.12
2017-06-05T13:32:43.909Z,29.57
2017-06-05T13:35:16.284Z,31.12
2017-06-05T13:37:48.683Z,30.35
2017-06-05T13:40:21.169Z,32.59
2017-06-05T13:42:53.516Z,33.60
2017-06-05T13:45:26.008Z,33.48
2017-06-05T13:47:58.475Z,32.81
2017-06-05T13:50:30.959Z,31.30
2017-06-05T13:53:03.425Z,30.25
2017-06-05T13:55:36.004Z,31.15
2017-06-05T13:58:08.553Z,29.59
2017-06-05T14:00:41.061Z,29.71
2017-06-05T14:03:13.121Z,31.50
2017-06-05T14:05:45.625Z,32.53
2017-06-05T14:08:18.048Z,31.95
2017-06-05T14:10:50.569Z,31.83
2017-06-05T14:13:23.045Z,33.14
2017-06-05T14:15:55.785Z,32.66
2017-06-05T14:18:28.155Z,31.39
2017-06-05T14:21:00.380Z,31.92
2017-06-05T14:23:32.712Z,31.86
2017-06-05T14:26:05.084Z,31.51
2017-06-05T14:28:37.453Z,31.85
2017-06-05T14:31:09.820Z,32.61
2017-06-05T14:33:42.588Z,32.40
2017-06-05T14:36:14.649Z,32.70
2017-06-05T14:38:47.093Z,32.06
2017-06-05T14:41:19.637Z,32.21
2017-06-05T14:43:51.997Z,33.54
2017-06-05T14:46:24.413Z,33.05
2017-06-05T14:48:56.785Z,33.12
2017-06-05T14:51:29.822Z,33.46
2017-06-05T14:54:01.814Z,33.51
2017-06-05T14:56:34.337Z,33.11
2017-06-05T14:59:07.573Z,33.82
2017-06-05T15:01:41.121Z,33.42
2017-06-05T15:04:13.534Z,33.60
2017-06-05T15:06:46.016Z,33.96
2017-06-05T15:09:18.580Z,33.29
2017-06-05T15:11:50.813Z,33.75
2017-06-05T15:14:23.249Z,34.45
2017-06-05T15:16:55.780Z,34.97
2017-06-05T15:19:28.097Z,34.56
2017-06-05T15:22:00.892Z,35.86
2017-06-05T15:24:33.088Z,36.20
2017-06-05T15:27:05.820Z,35.19
2017-06-05T15:29:38.009Z,34.32
2017-06-05T15:32:10.489Z,34.39
2017-06-05T15:34:42.836Z,34.35
2017-06-05T15:37:15.480Z,34.43
2017-06-05T15:39:48.620Z,34.85
2017-06-05T15:42:21.265Z,34.73
2017-06-05T15:44:53.712Z,35.20
2017-06-05T15:47:26.092Z,35.14
2017-06-05T15:49:58.432Z,35.20
2017-06-05T15:52:31.220Z,35.39
2017-06-05T15:55:03.237Z,34.34
2017-06-05T15:57:35.533Z,34.06
2017-06-05T16:00:08.211Z,33.98
2017-06-05T16:02:40.784Z,34.37
2017-06-05T16:05:12.977Z,33.48
2017-06-05T16:07:45.428Z,33.76
2017-06-05T16:10:17.768Z,34.65
2017-06-05T16:12:50.154Z,33.71
2017-06-05T16:15:22.588Z,34.06
2017-06-05T16:17:55.337Z,34.55
2017-06-05T16:20:27.421Z,35.53
2017-06-05T16:22:59.737Z,34.20
2017-06-05T16:25:32.773Z,34.44
2017-06-05T16:28:05.513Z,34.47
2017-06-05T16:30:37.745Z,34.04
2017-06-05T16:33:10.728Z,34.39
2017-06-05T16:35:42.597Z,34.73
2017-06-05T16:38:15.085Z,34.09
2017-06-05T16:40:47.642Z,34.11
2017-06-05T16:43:20.281Z,34.83
2017-06-05T16:45:52.500Z,34.15
2017-06-05T16:48:25.049Z,33.80
2017-06-05T16:50:57.448Z,34.70
2017-06-05T16:53:29.817Z,34.45
2017-06-05T16:56:02.304Z,34.20
2017-06-05T16:58:34.796Z,35.10
2017-06-05T17:01:07.152Z,33.78
2017-06-05T17:03:39.638Z,34.84
2017-06-05T17:06:11.989Z,34.82
2017-06-05T17:08:45.481Z,34.66
2017-06-05T17:11:17.886Z,34.26
2017-06-05T17:13:50.625Z,34.98
2017-06-05T17:16:22.741Z,35.91
2017-06-05T17:18:55.127Z,35.65
2017-06-05T17:21:27.357Z,35.20
2017-06-05T17:23:59.753Z,35.77
2017-06-05T17:26:32.036Z,35.71
2017-06-05T17:29:04.509Z,35.74
2017-06-05T17:31:36.945Z,35.58
2017-06-05T17:34:09.377Z,36.11
2017-06-05T17:36:41.660Z,35.44
2017-06-05T17:39:14.213Z,36.09
2017-06-05T17:41:46.550Z,35.71
2017-06-05T17:44:18.996Z,35.38
2017-06-05T17:46:51.476Z,35.87
2017-06-05T17:49:23.891Z,35.42
2017-06-05T17:51:56.221Z,35.56
2017-06-05T17:54:28.632Z,35.75
2017-06-05T17:57:01.013Z,36.88
2017-06-05T17:59:33.493Z,36.45
2017-06-05T18:02:05.945Z,36.34
2017-06-05T18:04:38.468Z,36.95
2017-06-05T18:07:10.999Z,36.63
2017-06-05T18:09:43.597Z,36.78
2017-06-05T18:12:16.044Z,37.05
2017-06-05T18:14:48.488Z,37.11
2017-06-05T18:17:20.893Z,37.37
2017-06-05T18:19:53.372Z,37.07
2017-06-05T18:22:25.668Z,37.79
2017-06-05T18:24:58.054Z,37.68
2017-06-05T18:27:30.576Z,37.78
2017-06-05T18:30:02.887Z,37.74
2017-06-05T18:32:35.237Z,38.55
2017-06-05T18:35:07.768Z,38.83
2017-06-05T18:37:40.021Z,39.84
2017-06-05T18:40:12.474Z,40.48
2017-06-05T18:42:44.812Z,40.62
2017-06-05T18:45:17.237Z,40.62
2017-06-05T18:47:49.714Z,40.67
2017-06-05T18:50:22.085Z,41.13
2017-06-05T18:52:54.714Z,41.07
2017-06-05T18:55:27.133Z,41.89
2017-06-05T18:57:59.500Z,41.39
2017-06-05T19:00:31.998Z,41.95
2017-06-05T19:03:04.268Z,42.23
2017-06-05T19:05:36.725Z,43.20
2017-06-05T19:08:09.115Z,43.42
2017-06-05T19:10:42.560Z,44.23
2017-06-05T19:13:15.104Z,44.23
2017-06-05T19:15:47.440Z,43.79
2017-06-05T19:18:19.789Z,44.74
2017-06-05T19:20:52.321Z,47.26
2017-06-05T19:23:24.798Z,45.77
2017-06-05T19:25:57.421Z,47.75
2017-06-05T19:28:30.823Z,47.71
2017-06-05T19:31:03.120Z,47.07
2017-06-05T19:33:35.615Z,47.37
2017-06-05T19:36:08.076Z,47.97
2017-06-05T19:38:40.736Z,48.25
2017-06-05T19:41:12.948Z,49.24
2017-06-05T19:43:45.358Z,49.60
2017-06-05T19:46:17.676Z,50.47
2017-06-05T19:48:51.000Z,50.99
2017-06-05T19:51:23.709Z,51.49
2017-06-05T19:53:56.018Z,51.97
2017-06-05T19:56:28.398Z,51.85
2017-06-05T19:59:00.837Z,52.42
2017-06-05T20:01:33.358Z,52.84
2017-06-05T20:04:05.744Z,53.20
2017-06-05T20:06:38.110Z,53.06
2017-06-05T20:09:10.394Z,53.30
2017-06-05T20:11:42.928Z,54.22
2017-06-05T20:14:16.149Z,53.84
2017-06-05T20:16:48.620Z,53.73
2017-06-05T20:19:21.169Z,54.36
2017-06-05T20:21:53.511Z,54.20
2017-06-05T20:24:25.959Z,54.98
2017-06-05T20:26:58.423Z,54.62
2017-06-05T20:29:31.696Z,55.31
2017-06-05T20:32:04.296Z,55.27
2017-06-05T20:34:36.737Z,55.12
2017-06-05T20:37:09.556Z,54.38
2017-06-05T20:39:41.757Z,55.03
2017-06-05T20:42:14.160Z,54.93
2017-06-05T20:44:46.953Z,55.89
2017-06-05T20:47:19.049Z,55.80
2017-06-05T20:49:51.326Z,55.88
2017-06-05T20:52:23.810Z,55.98
2017-06-05T20:54:56.142Z,55.96
2017-06-05T20:57:28.821Z,56.06
2017-06-05T21:00:00.806Z,56.54
2017-06-05T21:02:33.181Z,56.62
2017-06-05T21:05:05.937Z,57.38
2017-06-05T21:07:38.128Z,57.62
2017-06-05T21:10:10.873Z,56.83
2017-06-05T21:12:42.782Z,57.01
2017-06-05T21:15:15.202Z,56.94
2017-06-05T21:17:47.572Z,57.26
2017-06-05T21:20:20.070Z,57.45
2017-06-05T21:22:53.224Z,57.65
2017-06-05T21:25:26.848Z,57.79
2017-06-05T21:27:59.412Z,57.32
2017-06-05T21:30:31.752Z,58.08
2017-06-05T21:33:04.960Z,58.79
2017-06-05T21:35:37.313Z,57.77
2017-06-05T21:38:09.785Z,58.49
2017-06-05T21:40:42.292Z,58.63
2017-06-05T21:43:14.657Z,58.93
2017-06-05T21:45:47.050Z,59.25
2017-06-05T21:48:19.392Z,59.80
2017-06-05T21:50:51.721Z,59.79
2017-06-05T21:53:24.148Z,59.97
2017-06-05T21:55:56.563Z,60.31
2017-06-05T21:58:28.988Z,60.87
2017-06-05T22:01:01.195Z,61.24
2017-06-05T22:03:33.619Z,61.52
2017-06-05T22:06:05.952Z,61.69
2017-06-05T22:08:38.304Z,62.03
2017-06-05T22:11:10.749Z,62.93
2017-06-05T22:13:43.489Z,62.21
2017-06-05T22:16:15.883Z,63.47
2017-06-05T22:18:47.896Z,63.97
2017-06-05T22:21:20.154Z,64.31
2017-06-05T22:23:52.636Z,64.69
2017-06-05T22:26:25.360Z,64.96
2017-06-05T22:28:57.351Z,65.59
2017-06-05T22:31:29.742Z,66.14
2017-06-05T22:34:02.180Z,66.46
2017-06-05T22:36:34.388Z,66.17
2017-06-05T22:39:06.713Z,66.20
2017-06-05T22:41:38.868Z,66.57
2017-06-05T22:44:11.252Z,67.21
2017-06-05T22:46:43.620Z,67.10
2017-06-05T22:49:16.084Z,67.65
2017-06-05T22:51:48.351Z,68.00
2017-06-05T22:54:20.696Z,68.00
2017-06-05T22:56:53.145Z,68.01
2017-06-05T22:59:25.619Z,68.71
2017-06-05T23:01:57.952Z,68.37
2017-06-05T23:04:30.429Z,68.31
2017-06-05T23:07:02.852Z,69.30
2017-06-05T23:09:35.267Z,69.30
2017-06-05T23:12:07.584Z,67.86
2017-06-05T23:14:40.320Z,68.75
2017-06-05T23:17:12.361Z,69.77
2017-06-05T23:19:44.636Z,70.78
2017-06-05T23:22:17.009Z,71.12
2017-06-05T23:24:49.772Z,71.45
2017-06-05T23:27:21.753Z,71.08
2017-06-05T23:29:55.026Z,70.99
2017-06-05T23:32:27.609Z,71.30
2017-06-05T23:35:00.114Z,71.76
2017-06-05T23:37:32.494Z,71.48
2017-06-05T23:40:04.925Z,71.88
2017-06-05T23:42:38.115Z,72.47
2017-06-05T23:45:10.712Z,72.63
2017-06-05T23:47:43.111Z,72.70
2017-06-05T23:50:15.425Z,72.57
2017-06-05T23:52:48.339Z,73.37
2017-06-05T23:55:20.212Z,73.55
2017-06-05T23:57:52.657Z,73.74
